Monday, July 23, 2018, 11:07 AM EDT
Back to Local

KBLM, Belmar-farmingdale

Location: Farmingdale, NJ, United States Lat: 40.183
Local Time: 11:07 AM EDT (15:07 GMT) Lon: -74.133
Time Zone: US/Eastern Elev: 157 ft

Show me the last for .
Show Decoded

2018-07-23 11:03 METAR KBLM 231503Z AUTO 14009KT 110V190 10SM OVC011 25/23 A3012 RMK AO2 =
2018-07-23 10:33 METAR KBLM 231433Z AUTO 14008KT 10SM BKN013 OVC026 24/22 A3012 RMK AO2 =
2018-07-23 09:56 METAR KBLM 231356Z AUTO 13007KT 10SM FEW007 OVC024 24/22 A3011 RMK AO2 SLP199
                 T02390222 =
2018-07-23 09:53 METAR KBLM 231353Z AUTO 13006KT 10SM SCT007 OVC024 24/22 A3011 RMK AO2 =
2018-07-23 09:25 METAR KBLM 231325Z AUTO 12009KT 10SM OVC005 24/22 A3010 RMK AO2 CIG 005V009 =
2018-07-23 08:56 METAR KBLM 231256Z AUTO 13009KT 100V170 10SM OVC007 23/22 A3010 RMK AO2 RAE24
                 CIG 004V009 SLP195 P0002 T02330222 =
2018-07-23 08:21 METAR KBLM 231221Z AUTO 14008KT 10SM -RA BKN007 BKN050 OVC060 23/22 A3009 RMK
                 AO2 CIG 005V011 P0002 =
2018-07-23 07:56 METAR KBLM 231156Z AUTO 13006KT 8SM RA OVC005 23/22 A3007 RMK AO2 RAE35B53
                 SLP185 P0027 60070 7//// T02280217 10244 20222 51016 =
2018-07-23 07:48 METAR KBLM 231148Z AUTO 14006KT 10SM OVC005 23/22 A3007 RMK AO2 RAE35 CIG
                 004V009 P0026 =
2018-07-23 07:36 METAR KBLM 231136Z AUTO 14008G16KT 10SM OVC007 23/22 A3007 RMK AO2 RAE35 CIG
                 004V011 P0026 =
2018-07-23 06:56 METAR KBLM 231056Z AUTO 16006KT 3SM +RA BR OVC005 23/22 A3006 RMK AO2 SLP183
                 P0039 T02280222 =
2018-07-23 06:46 METAR KBLM 231046Z AUTO 17005KT 2 1/2SM +RA BR OVC005 23/22 A3006 RMK AO2 VIS 1
                 3/4V4 P0026 =
2018-07-23 05:56 METAR KBLM 230956Z AUTO 14008KT 8SM -RA OVC005 23/23 A3004 RMK AO2 SLP174 P0002
                 T02330228 =
2018-07-23 04:56 METAR KBLM 230856Z AUTO 12012G22KT 7SM -RA OVC005 24/23 A3002 RMK AO2 SLP169
                 P0002 60002 T02390233 55001 =
2018-07-23 03:56 METAR KBLM 230756Z AUTO 12013G21KT 7SM -RA OVC005 24/23 A3001 RMK AO2 RAB43
                 SLP164 P0000 T02390233 =
2018-07-23 02:56 METAR KBLM 230656Z AUTO 13011KT 7SM OVC005 24/23 A3001 RMK AO2 SLP166 T02440233
                 =
2018-07-23 02:24 METAR KBLM 230624Z AUTO 13008G16KT 6SM BR BKN005 OVC010 24/23 A3003 RMK AO2 CIG
                 004V007 =
2018-07-23 01:56 METAR KBLM 230556Z AUTO 14007KT 6SM BR OVC006 24/23 A3003 RMK AO2 CIG 005V009
                 SLP170 60000 T02390233 10244 20233 50001 =
2018-07-23 00:56 METAR KBLM 230456Z AUTO 14009KT 7SM OVC006 24/23 A3004 RMK AO2 SLP173 T02440233
                 402670211 =
2018-07-22 23:56 METAR KBLM 230356Z AUTO 15011G17KT 8SM OVC008 24/23 A3003 RMK AO2 CIG 005V010
                 SLP172 T02440233 =
2018-07-22 22:56 METAR KBLM 230256Z AUTO 14010G18KT 7SM OVC006 24/23 A3002 RMK AO2 CIG 006V010
                 SLP169 60000 T02440233 51016 =
2018-07-22 21:56 METAR KBLM 230156Z AUTO 14009KT 7SM OVC006 24/23 A3002 RMK AO2 CIG 005V009
                 SLP167 T02390233 =
2018-07-22 20:56 METAR KBLM 230056Z AUTO 15008G18KT 7SM OVC006 24/23 A2999 RMK AO2 RAB2359E26
                 SLP159 P0000 T02390233 =
2018-07-22 20:37 METAR KBLM 230037Z AUTO 15012G15KT 5SM BR OVC006 24/23 A2999 RMK AO2 RAB2359E26
                 P0000 =
2018-07-22 19:56 METAR KBLM 222356Z AUTO 13009KT 5SM BR OVC004 23/23 A2998 RMK AO2 RAE48 SLP154
                 P0001 6//// T02330228 10267 20233 51008 =
2018-07-22 19:52 METAR KBLM 222352Z AUTO 13008KT 5SM BR OVC004 23/23 A2998 RMK AO2 RAE48 P0001 =
2018-07-22 18:56 METAR KBLM 222256Z AUTO 11010KT 4SM -RA BR OVC006 23/23 A2997 RMK AO2 SLP151
                 P0001 T02330228 =
2018-07-22 17:56 METAR KBLM 222156Z AUTO 12015G22KT 7SM -RA BKN006 OVC021 23/23 A2995 RMK AO2 CIG
                 004V009 SLP145 P0001 T02330228 =
2018-07-22 16:56 METAR KBLM 222056Z AUTO 12011G19KT 7SM -RA BKN008 OVC025 24/23 A2996 RMK AO2
                 RAB32 CIG 004V011 SLP147 P0000 6//// T02390228 53003 =
2018-07-22 16:54 METAR KBLM 222054Z AUTO 10008G19KT 7SM -RA BKN008 OVC025 24/23 A2996 RMK AO2
                 RAB32 CIG 007V011 P0000 =
2018-07-22 15:56 METAR KBLM 221956Z AUTO 13011G18KT 9SM OVC010 26/23 A2994 RMK AO2 CIG 009V013
                 SLP141 T02610233 =
2018-07-22 15:44 METAR KBLM 221944Z AUTO 12012G17KT 9SM OVC010 26/23 A2994 RMK AO2 =
2018-07-22 14:56 METAR KBLM 221856Z AUTO 12010KT 8SM OVC008 26/23 A2995 RMK AO2 SLP144 T02560233
                 =
2018-07-22 14:08 METAR KBLM 221808Z AUTO 12011KT 9SM BKN008 OVC017 26/23 A2996 RMK AO2 =
2018-07-22 13:56 METAR KBLM 221756Z AUTO 11012G19KT 8SM FEW008 BKN017 OVC060 26/23 A2996 RMK AO2
                 SLP147 60000 T02560233 10267 20211 50006 =
2018-07-22 13:49 METAR KBLM 221749Z AUTO 12012G16KT 9SM BKN015 BKN023 OVC060 26/23 A2996 RMK AO2
                 =
2018-07-22 13:13 METAR KBLM 221713Z AUTO 14013G16KT 10SM FEW017 SCT033 BKN060 26/22 A2996 RMK AO2
                 =
2018-07-22 12:56 METAR KBLM 221656Z AUTO 15012KT 10SM SCT017 BKN027 BKN043 26/22 A2996 RMK AO2
                 SLP148 T02610217 =
2018-07-22 12:26 METAR KBLM 221626Z AUTO 14011G18KT 10SM BKN017 BKN030 26/22 A2996 RMK AO2 =
2018-07-22 11:56 METAR KBLM 221556Z AUTO 13012KT 10SM CLR 26/21 A2996 RMK AO2 SLP147 T02560211 =

Support USWX by starting your Amazon purchase here.